createdAt,value
2022-10-22T00:00:07.174Z,19.3
2022-10-22T00:04:11.210Z,19
2022-10-22T00:06:13.233Z,17.9
2022-10-22T00:08:18.313Z,19.6
2022-10-22T00:10:20.318Z,21.6
2022-10-22T00:12:22.357Z,17.8
2022-10-22T00:16:41.560Z,20.6
2022-10-22T00:24:52.698Z,19.9
2022-10-22T00:26:54.702Z,19.6
2022-10-22T00:28:56.728Z,21.2
2022-10-22T00:30:58.745Z,21.9
2022-10-22T00:35:05.848Z,22.9
2022-10-22T00:41:11.911Z,22.2
2022-10-22T00:43:13.934Z,22.4
2022-10-22T00:47:17.972Z,23.5
2022-10-22T00:49:23.080Z,25
2022-10-22T00:51:25.073Z,23.6
2022-10-22T00:53:27.100Z,23.3
2022-10-22T00:57:31.139Z,23.1
2022-10-22T00:59:33.171Z,22.3
2022-10-22T01:01:35.211Z,26.6
2022-10-22T01:03:40.263Z,30.1
2022-10-22T01:05:42.319Z,27.2
2022-10-22T01:07:44.305Z,27.7
2022-10-22T01:08:46.910Z,28.1
2022-10-22T01:10:48.891Z,23.7
2022-10-22T01:12:50.939Z,27.7
2022-10-22T01:14:52.971Z,27.7
2022-10-22T01:16:58.036Z,29.2
2022-10-22T01:19:00.083Z,26.3
2022-10-22T01:21:02.082Z,25.6
2022-10-22T01:23:04.129Z,26.8
2022-10-22T01:25:06.141Z,25.2
2022-10-22T01:29:10.212Z,28.1
2022-10-22T01:31:15.263Z,28.4
2022-10-22T01:37:21.304Z,25.3
2022-10-22T01:39:23.333Z,26.8
2022-10-22T01:41:25.361Z,27.5
2022-10-22T01:43:27.386Z,29
2022-10-22T01:45:32.456Z,27.6
2022-10-22T01:49:36.507Z,26.7
2022-10-22T01:51:38.522Z,28.3
2022-10-22T01:53:40.594Z,27.6
2022-10-22T01:55:42.571Z,28.2
2022-10-22T01:57:44.575Z,29.6
2022-10-22T02:01:51.682Z,29
2022-10-22T02:03:53.699Z,27.6
2022-10-22T02:06:58.304Z,28.7
2022-10-22T02:11:02.374Z,29.4
2022-10-22T02:17:11.458Z,30.2
2022-10-22T02:19:13.495Z,25.8
2022-10-22T02:23:17.527Z,26.9
2022-10-22T02:25:19.568Z,26.6
2022-10-22T02:29:26.672Z,27.5
2022-10-22T02:33:30.710Z,28.8
2022-10-22T02:35:32.752Z,28.1
2022-10-22T02:37:34.765Z,29.4
2022-10-22T02:41:41.860Z,30.4
2022-10-22T02:43:43.878Z,30.4
2022-10-22T02:45:45.871Z,31.4
2022-10-22T02:51:51.955Z,29.8
2022-10-22T02:53:53.948Z,32.2
2022-10-22T02:55:59.031Z,33.8
2022-10-22T02:58:01.038Z,32.1
2022-10-22T03:00:03.100Z,33.4
2022-10-22T03:05:11.151Z,35.1
2022-10-22T03:13:22.282Z,33.5
2022-10-22T03:15:24.326Z,32.8
2022-10-22T03:17:26.311Z,34.1
2022-10-22T03:19:28.309Z,33.6
2022-10-22T03:21:30.300Z,35.7
2022-10-22T03:23:35.402Z,36.2
2022-10-22T03:27:39.690Z,33.1
2022-10-22T03:29:41.413Z,35
2022-10-22T03:31:43.433Z,35.4
2022-10-22T03:33:45.441Z,35.1
2022-10-22T03:35:47.464Z,36.8
2022-10-22T03:37:52.532Z,37.5
2022-10-22T03:39:54.528Z,36.2
2022-10-22T03:54:11.681Z,36.6
2022-10-22T03:56:13.676Z,35.4
2022-10-22T03:58:30.292Z,40.7
2022-10-22T04:00:32.363Z,40.5
2022-10-22T04:02:34.332Z,39.7
2022-10-22T04:06:41.415Z,37.7
2022-10-22T04:08:43.505Z,39.3
2022-10-22T04:10:45.433Z,37.3
2022-10-22T04:20:58.593Z,38.7
2022-10-22T04:25:02.692Z,39.5
2022-10-22T04:27:04.611Z,37.2
2022-10-22T04:29:06.964Z,39.8
2022-10-22T04:31:08.641Z,38.5
2022-10-22T04:33:13.729Z,39.4
2022-10-22T04:35:15.824Z,39.9
2022-10-22T04:39:19.779Z,37
2022-10-22T04:41:21.789Z,36.5
2022-10-22T04:43:23.782Z,37.1
2022-10-22T04:45:25.819Z,34.9
2022-10-22T04:49:32.899Z,37.2
2022-10-22T04:51:34.896Z,38.8
2022-10-22T04:52:37.412Z,37
2022-10-22T04:56:41.453Z,35.1
2022-10-22T04:58:43.459Z,34.8
2022-10-22T05:00:48.626Z,39.1
2022-10-22T05:04:52.559Z,35.6
2022-10-22T05:06:54.576Z,32.6
2022-10-22T05:08:56.616Z,34.3
2022-10-22T05:10:58.609Z,31.5
2022-10-22T05:13:00.628Z,31
2022-10-22T05:15:05.708Z,33.8
2022-10-22T05:17:07.707Z,32.1
2022-10-22T05:19:09.738Z,32.2
2022-10-22T05:21:11.761Z,31
2022-10-22T05:23:13.759Z,29.5
2022-10-22T05:25:15.777Z,35.7
2022-10-22T05:29:22.860Z,33
2022-10-22T05:31:24.867Z,32.5
2022-10-22T05:33:26.890Z,32
2022-10-22T05:35:28.896Z,31.7
2022-10-22T05:37:30.918Z,31.1
2022-10-22T05:39:32.932Z,29
2022-10-22T05:41:34.952Z,29.1
2022-10-22T05:43:40.013Z,33.1
2022-10-22T05:45:42.049Z,28.2
2022-10-22T05:47:44.048Z,26.3
2022-10-22T05:48:46.569Z,26.8
2022-10-22T05:50:48.595Z,22.8
2022-10-22T05:52:50.599Z,23.6
2022-10-22T05:54:52.621Z,23.6
2022-10-22T05:56:57.687Z,25.6
2022-10-22T05:58:59.792Z,25.9
2022-10-22T06:09:09.803Z,19.9
2022-10-22T06:11:14.851Z,21.6
2022-10-22T06:13:16.859Z,19.3
2022-10-22T06:15:18.860Z,20.8
2022-10-22T06:19:22.907Z,20.1
2022-10-22T06:21:24.904Z,18.8
2022-10-22T06:23:26.942Z,19
2022-10-22T06:25:31.989Z,19.5
2022-10-22T06:27:34.025Z,18.3
2022-10-22T06:29:36.007Z,17.7
2022-10-22T06:31:38.033Z,18.4
2022-10-22T06:33:40.064Z,16.7
2022-10-22T06:35:42.055Z,17
2022-10-22T06:37:44.078Z,17.7
2022-10-22T06:39:49.170Z,19.8
2022-10-22T06:41:51.167Z,17.8
2022-10-22T06:43:53.212Z,17.3
2022-10-22T06:44:55.755Z,17.1
2022-10-22T06:46:57.742Z,16.6
2022-10-22T06:48:59.768Z,17.3
2022-10-22T06:51:01.781Z,16.5
2022-10-22T06:53:07.002Z,19.2
2022-10-22T06:55:08.856Z,17
2022-10-22T06:59:12.903Z,15.2
2022-10-22T07:01:14.979Z,16.3
2022-10-22T07:03:16.908Z,13.4
2022-10-22T07:07:24.011Z,14.9
2022-10-22T07:15:32.077Z,14.8
2022-10-22T07:21:41.172Z,13.5
2022-10-22T07:23:43.215Z,14.4
2022-10-22T07:31:51.268Z,13
2022-10-22T07:33:53.298Z,13.6
2022-10-22T07:35:58.379Z,13.9
2022-10-22T07:38:00.389Z,12.3
2022-10-22T07:40:03.892Z,14.7
2022-10-22T07:42:25.149Z,14.9
2022-10-22T07:44:27.113Z,14.5
2022-10-22T07:46:29.119Z,12.2
2022-10-22T07:48:34.190Z,14.8
2022-10-22T07:50:36.233Z,12.3
2022-10-22T07:52:38.543Z,13.6
2022-10-22T07:54:40.247Z,12.7
2022-10-22T07:56:42.387Z,10
2022-10-22T07:58:44.270Z,12.3
2022-10-22T08:00:46.289Z,13.7
2022-10-22T08:02:51.426Z,12.3
2022-10-22T08:04:53.372Z,10.9
2022-10-22T08:06:55.387Z,12.2
2022-10-22T08:08:57.483Z,11.7
2022-10-22T08:10:59.437Z,13.5
2022-10-22T08:13:01.458Z,11.7
2022-10-22T08:15:03.486Z,11
2022-10-22T08:17:08.532Z,11.3
2022-10-22T08:19:10.574Z,11.4
2022-10-22T08:21:12.577Z,10.2
2022-10-22T08:23:14.592Z,12.2
2022-10-22T08:25:16.602Z,11.6
2022-10-22T08:27:18.615Z,9
2022-10-22T08:29:20.604Z,10.7
2022-10-22T08:31:25.696Z,11.8
2022-10-22T08:33:27.717Z,11.9
2022-10-22T08:35:29.701Z,10.7
2022-10-22T08:38:34.288Z,8.6
2022-10-22T08:40:36.333Z,10
2022-10-22T08:42:38.522Z,10.2
2022-10-22T08:44:43.367Z,11.1
2022-10-22T08:46:45.360Z,12.1
2022-10-22T08:48:47.374Z,8.8
2022-10-22T08:50:49.384Z,10.6
2022-10-22T08:52:51.370Z,11.5
2022-10-22T08:54:53.416Z,10.6
2022-10-22T08:56:56.899Z,9.1
2022-10-22T08:59:01.928Z,9.7
2022-10-22T09:01:03.937Z,9.4
2022-10-22T09:03:05.930Z,8.5
2022-10-22T09:05:11.513Z,7.2
2022-10-22T09:07:09.941Z,8.8
2022-10-22T09:09:12.053Z,7.4
2022-10-22T09:11:13.948Z,7.8
2022-10-22T09:13:19.031Z,7.3
2022-10-22T09:15:21.011Z,9.4
2022-10-22T09:17:23.013Z,9.7
2022-10-22T09:19:25.038Z,10.2
2022-10-22T09:21:27.007Z,9.3
2022-10-22T09:23:29.018Z,10.1
2022-10-22T09:25:31.043Z,9
2022-10-22T09:27:36.086Z,8.8
2022-10-22T09:32:43.239Z,10.1
2022-10-22T09:34:44.665Z,9.4
2022-10-22T09:36:46.656Z,9.1
2022-10-22T09:38:48.653Z,9.5
2022-10-22T09:40:53.714Z,9.6
2022-10-22T09:42:55.716Z,8.5
2022-10-22T09:44:57.739Z,7.4
2022-10-22T09:46:59.737Z,9
2022-10-22T09:49:01.761Z,8.7
2022-10-22T09:51:03.828Z,8.2
2022-10-22T09:53:05.755Z,11.1
2022-10-22T09:55:10.851Z,7.6
2022-10-22T09:57:12.826Z,8.3
2022-10-22T09:59:14.848Z,7.9
2022-10-22T10:01:16.832Z,5.8
2022-10-22T10:03:18.899Z,7.9
2022-10-22T10:05:20.835Z,9.9
2022-10-22T10:07:22.869Z,7.3
2022-10-22T10:09:27.936Z,8.3
2022-10-22T10:11:29.919Z,6.9
2022-10-22T10:13:31.936Z,7.1
2022-10-22T10:15:33.933Z,8
2022-10-22T10:17:35.906Z,8.8
2022-10-22T10:21:39.901Z,6.8
2022-10-22T10:23:44.964Z,4.4
2022-10-22T10:25:46.963Z,5.2
2022-10-22T10:27:48.960Z,5.4
2022-10-22T10:28:51.496Z,5.9
2022-10-22T10:30:53.495Z,5.9
2022-10-22T10:32:55.480Z,4.7
2022-10-22T10:34:57.503Z,4.8
2022-10-22T10:37:02.559Z,5
2022-10-22T10:39:04.552Z,5
2022-10-22T10:41:06.539Z,4.5
2022-10-22T10:43:08.535Z,4.8
2022-10-22T10:45:10.517Z,3.9
2022-10-22T10:47:12.514Z,5.1
2022-10-22T10:49:14.503Z,4.3
2022-10-22T10:51:19.603Z,3.3
2022-10-22T10:53:21.556Z,3.3
2022-10-22T10:55:23.550Z,3.6
2022-10-22T10:57:25.538Z,4.6
2022-10-22T10:59:27.510Z,3.7
2022-10-22T11:01:29.542Z,3.6
2022-10-22T11:03:31.507Z,2.5
2022-10-22T11:05:36.565Z,2.1
2022-10-22T11:07:38.542Z,3.3
2022-10-22T11:11:42.505Z,3
2022-10-22T11:13:44.499Z,3.3
2022-10-22T11:17:48.462Z,3.6
2022-10-22T11:19:57.859Z,2.9
2022-10-22T11:21:55.515Z,2.9
2022-10-22T11:23:57.503Z,3.1
2022-10-22T11:26:20.166Z,3.1
2022-10-22T11:28:22.143Z,2.8
2022-10-22T11:30:24.132Z,3
2022-10-22T11:34:33.841Z,1.9
2022-10-22T11:36:33.150Z,2.6
2022-10-22T11:40:37.091Z,2.4
2022-10-22T11:44:41.043Z,2.3
2022-10-22T11:48:48.082Z,1.7
2022-10-22T11:50:50.056Z,1.9
2022-10-22T11:52:52.008Z,3.2
2022-10-22T11:54:53.970Z,2
2022-10-22T11:56:55.940Z,2
2022-10-22T12:01:02.952Z,2.7
2022-10-22T12:07:08.803Z,1.8
2022-10-22T12:09:10.874Z,2.2
2022-10-22T12:11:12.715Z,1.9
2022-10-22T12:17:21.674Z,2.6
2022-10-22T12:19:23.636Z,1.8
2022-10-22T12:20:26.139Z,2.5
2022-10-22T12:22:28.086Z,1.6
2022-10-22T12:24:30.048Z,2.3
2022-10-22T12:26:32.002Z,2.1
2022-10-22T12:28:37.052Z,1.8
2022-10-22T12:30:38.975Z,2
2022-10-22T12:34:42.930Z,1.7
2022-10-22T12:36:44.821Z,2.2
2022-10-22T12:38:46.780Z,2.4
2022-10-22T12:40:49.154Z,1.9
2022-10-22T12:44:55.762Z,1.8
2022-10-22T12:46:57.675Z,2
2022-10-22T12:48:59.638Z,1.8
2022-10-22T12:51:01.615Z,1.5
2022-10-22T12:53:03.706Z,2.4
2022-10-22T12:55:05.540Z,1.5
2022-10-22T12:57:10.579Z,2
2022-10-22T12:59:12.537Z,1.7
2022-10-22T13:01:14.542Z,2.4
2022-10-22T13:03:16.651Z,1.8
2022-10-22T13:05:18.437Z,1.4
2022-10-22T13:07:22.259Z,1.6
2022-10-22T13:09:25.271Z,2.1
2022-10-22T13:11:27.437Z,2.3
2022-10-22T13:13:29.554Z,1.5
2022-10-22T13:15:31.401Z,1.6
2022-10-22T13:16:33.932Z,2.4
2022-10-22T13:18:36.032Z,2.2
2022-10-22T13:20:37.862Z,1.5
2022-10-22T13:22:39.842Z,2.7
2022-10-22T13:24:44.941Z,2.4
2022-10-22T13:26:46.852Z,2.2
2022-10-22T13:28:48.964Z,1.5
2022-10-22T13:30:50.818Z,1.5
2022-10-22T13:32:52.788Z,1.7
2022-10-22T13:34:54.747Z,1.8
2022-10-22T13:36:56.706Z,2.1
2022-10-22T13:39:01.895Z,2.4
2022-10-22T13:41:03.723Z,1.6
2022-10-22T13:43:05.687Z,1.8
2022-10-22T13:45:07.659Z,1.6
2022-10-22T13:47:09.618Z,1.5
2022-10-22T13:49:11.580Z,1.5
2022-10-22T13:51:13.523Z,2
2022-10-22T13:53:18.992Z,3.8
2022-10-22T13:55:20.551Z,2.3
2022-10-22T13:57:22.516Z,2.1
2022-10-22T13:59:24.477Z,2.5
2022-10-22T14:01:26.402Z,2.4
2022-10-22T14:03:28.380Z,1.5
2022-10-22T14:05:30.328Z,2.1
2022-10-22T14:07:35.378Z,2.2
2022-10-22T14:09:37.349Z,2.6
2022-10-22T14:11:39.283Z,2.5
2022-10-22T14:12:41.804Z,3.2
2022-10-22T14:14:43.880Z,2.7
2022-10-22T14:16:45.741Z,1.6
2022-10-22T14:18:47.721Z,1.8
2022-10-22T14:20:52.775Z,2.9
2022-10-22T14:22:54.755Z,3.2
2022-10-22T14:24:56.725Z,1.8
2022-10-22T14:26:58.691Z,3.1
2022-10-22T14:29:11.674Z,2.8
2022-10-22T14:31:02.646Z,2
2022-10-22T14:33:04.621Z,2.5
2022-10-22T14:35:09.696Z,2.5
2022-10-22T14:37:11.671Z,2.5
2022-10-22T14:39:13.676Z,3
2022-10-22T14:41:15.608Z,3.5
2022-10-22T14:43:17.592Z,3
2022-10-22T14:45:19.568Z,2.6
2022-10-22T14:47:21.524Z,3.3
2022-10-22T14:49:28.095Z,2.8
2022-10-22T14:51:30.062Z,3.2
2022-10-22T14:53:32.031Z,3.8
2022-10-22T14:55:34.016Z,3.2
2022-10-22T14:57:35.991Z,3.1
2022-10-22T14:59:37.972Z,2
2022-10-22T15:01:39.946Z,2.1
2022-10-22T15:03:45.021Z,3.4
2022-10-22T15:05:46.978Z,2.7
2022-10-22T15:07:48.969Z,2.7
2022-10-22T15:10:05.815Z,2.5
2022-10-22T15:12:07.769Z,2.9
2022-10-22T15:24:22.757Z,3.5
2022-10-22T15:26:24.749Z,2.9
2022-10-22T15:28:26.725Z,3.8
2022-10-22T15:32:33.782Z,2.8
2022-10-22T15:34:35.765Z,4.1
2022-10-22T15:36:37.768Z,3.6
2022-10-22T15:38:39.751Z,3
2022-10-22T15:40:41.768Z,2.9
2022-10-22T15:42:43.968Z,4
2022-10-22T15:44:48.801Z,3.8
2022-10-22T15:48:52.797Z,4
2022-10-22T15:50:54.815Z,4
2022-10-22T15:52:56.815Z,3.7
2022-10-22T15:54:58.809Z,4.3
2022-10-22T15:57:00.819Z,3.3
2022-10-22T15:59:05.892Z,4.5
2022-10-22T16:01:07.952Z,4.1
2022-10-22T16:03:09.897Z,3.2
2022-10-22T16:06:14.449Z,3.6
2022-10-22T16:08:16.426Z,3.2
2022-10-22T16:10:18.437Z,4
2022-10-22T16:12:23.539Z,3.5
2022-10-22T16:14:25.532Z,3.7
2022-10-22T16:18:29.568Z,3.4
2022-10-22T16:20:31.587Z,3
2022-10-22T16:22:33.629Z,4.3
2022-10-22T16:24:35.655Z,4.3
2022-10-22T16:28:42.750Z,5.2
2022-10-22T16:30:44.784Z,5.1
2022-10-22T16:32:46.813Z,4.2
2022-10-22T16:34:48.849Z,5.5
2022-10-22T16:38:52.848Z,5.1
2022-10-22T16:40:57.952Z,5.8
2022-10-22T16:42:59.978Z,6.4
2022-10-22T16:45:02.057Z,6.7
2022-10-22T16:47:04.010Z,7.7
2022-10-22T16:49:06.053Z,8.1
2022-10-22T16:51:08.094Z,10.3
2022-10-22T16:53:10.130Z,13.5
2022-10-22T16:55:15.193Z,11.9
2022-10-22T16:57:17.225Z,10.9
2022-10-22T16:59:19.241Z,10.5
2022-10-22T17:00:21.808Z,13.9
2022-10-22T17:02:23.828Z,11.5
2022-10-22T17:04:25.837Z,11.4
2022-10-22T17:06:27.883Z,10.9
2022-10-22T17:08:33.055Z,11.8
2022-10-22T17:10:35.023Z,11.4
2022-10-22T17:12:37.035Z,11.8
2022-10-22T17:14:39.079Z,9.4
2022-10-22T17:16:41.121Z,10.7
2022-10-22T17:18:43.279Z,10.6
2022-10-22T17:22:50.276Z,18
2022-10-22T17:24:52.296Z,13.7
2022-10-22T17:26:54.413Z,14.5
2022-10-22T17:28:56.375Z,12.2
2022-10-22T17:30:58.397Z,14
2022-10-22T17:33:00.439Z,14.8
2022-10-22T17:35:02.498Z,13.6
2022-10-22T17:37:07.551Z,15.4
2022-10-22T17:41:14.543Z,14.9
2022-10-22T17:47:17.711Z,15.7
2022-10-22T17:49:19.724Z,14.6
2022-10-22T17:51:24.810Z,14.8
2022-10-22T17:53:26.862Z,15.7
2022-10-22T17:56:31.418Z,15.6
2022-10-22T17:58:33.470Z,15.6
2022-10-22T18:00:35.495Z,15.8
2022-10-22T18:02:37.519Z,15.6
2022-10-22T18:04:42.635Z,17.1
2022-10-22T18:06:44.782Z,16.5
2022-10-22T18:08:46.877Z,19
2022-10-22T18:10:48.718Z,16.4
2022-10-22T18:12:50.726Z,16.4
2022-10-22T18:14:52.764Z,16.1
2022-10-22T18:16:54.801Z,17.5
2022-10-22T18:18:59.891Z,15.8
2022-10-22T18:21:01.817Z,16.7
2022-10-22T18:23:03.835Z,17.5
2022-10-22T18:25:05.884Z,17.2
2022-10-22T18:27:07.900Z,18.6
2022-10-22T18:29:09.926Z,18.6
2022-10-22T18:35:19.103Z,21.6
2022-10-22T18:37:21.327Z,24.1
2022-10-22T18:45:29.240Z,21
2022-10-22T18:54:05.901Z,31.4
2022-10-22T18:56:03.055Z,29.5
2022-10-22T18:58:05.064Z,35.7
2022-10-22T19:00:10.168Z,35.1
2022-10-22T19:02:12.187Z,34.9
2022-10-22T19:04:14.201Z,36.6
2022-10-22T19:06:16.223Z,38.6
2022-10-22T19:08:18.237Z,32.4
2022-10-22T19:10:20.285Z,36.4
2022-10-22T19:12:22.311Z,37.9
2022-10-22T19:14:27.402Z,49.4
2022-10-22T19:16:29.436Z,41.7
2022-10-22T19:18:31.468Z,38.4
2022-10-22T19:20:33.492Z,41.1
2022-10-22T19:22:35.507Z,39.7
2022-10-22T19:24:37.528Z,37.1
2022-10-22T19:26:39.601Z,34.5
2022-10-22T19:28:44.662Z,62.4
2022-10-22T19:30:46.687Z,58.9
2022-10-22T19:34:50.753Z,80.2
2022-10-22T19:36:52.784Z,68.2
2022-10-22T19:40:56.824Z,82.3
2022-10-22T19:43:01.911Z,76.3
2022-10-22T19:45:03.937Z,62.8
2022-10-22T19:47:05.969Z,48.3
2022-10-22T19:48:08.521Z,52.4
2022-10-22T19:50:10.529Z,42.3
2022-10-22T19:52:12.568Z,42.2
2022-10-22T19:54:14.725Z,42.4
2022-10-22T19:56:19.691Z,40.5
2022-10-22T19:58:21.705Z,43
2022-10-22T20:00:23.715Z,36.5
2022-10-22T20:02:25.763Z,41.4
2022-10-22T20:04:27.929Z,35.8
2022-10-22T20:06:29.808Z,35.1
2022-10-22T20:08:31.952Z,34.7
2022-10-22T20:10:36.923Z,32.6
2022-10-22T20:12:38.937Z,29.3
2022-10-22T20:14:40.968Z,32.1
2022-10-22T20:16:42.985Z,28.8
2022-10-22T20:22:49.063Z,29.7
2022-10-22T20:24:54.158Z,30.1
2022-10-22T20:31:00.235Z,28.3
2022-10-22T20:33:02.252Z,29.2
2022-10-22T20:35:04.265Z,26.9
2022-10-22T20:37:06.311Z,27.4
2022-10-22T20:39:12.932Z,32.1
2022-10-22T20:41:14.895Z,28.7
2022-10-22T20:43:16.916Z,28
2022-10-22T20:44:19.455Z,29.8
2022-10-22T20:46:21.500Z,27.1
2022-10-22T20:48:23.542Z,29.7
2022-10-22T20:50:25.563Z,28.7
2022-10-22T20:54:32.674Z,29.6
2022-10-22T20:56:34.693Z,29.8
2022-10-22T20:58:36.721Z,31.1
2022-10-22T21:00:38.755Z,31.1
2022-10-22T21:02:40.770Z,32.7
2022-10-22T21:04:45.552Z,33.1
2022-10-22T21:06:47.866Z,34.2
2022-10-22T21:08:50.032Z,32.8
2022-10-22T21:10:51.969Z,31.5
2022-10-22T21:12:53.977Z,37.5
2022-10-22T21:14:56.002Z,36.5
2022-10-22T21:16:58.029Z,39.2
2022-10-22T21:19:00.059Z,40.6
2022-10-22T21:25:09.195Z,33.6
2022-10-22T21:27:11.200Z,34.2
2022-10-22T21:29:13.190Z,35.4
2022-10-22T21:35:22.319Z,37.9
2022-10-22T21:39:26.367Z,37.1
2022-10-22T21:40:28.939Z,35.9
2022-10-22T21:42:30.962Z,35.1
2022-10-22T21:44:32.955Z,37.1
2022-10-22T21:46:34.978Z,33.9
2022-10-22T21:48:40.082Z,37.4
2022-10-22T21:50:42.103Z,38.4
2022-10-22T21:52:44.126Z,35.1
2022-10-22T21:54:46.130Z,43.6
2022-10-22T21:56:48.146Z,44.2
2022-10-22T21:58:50.162Z,46.3
2022-10-22T22:00:52.275Z,42.6
2022-10-22T22:02:57.296Z,43.2
2022-10-22T22:04:59.295Z,41.2
2022-10-22T22:07:01.330Z,42
2022-10-22T22:09:03.454Z,41.9
2022-10-22T22:15:09.451Z,41.4
2022-10-22T22:17:14.528Z,45.2
2022-10-22T22:19:16.535Z,50.4
2022-10-22T22:21:18.547Z,49.1
2022-10-22T22:23:20.588Z,47.4
2022-10-22T22:25:22.583Z,44.4
2022-10-22T22:27:24.623Z,46.5
2022-10-22T22:29:26.650Z,41.7
2022-10-22T22:35:35.867Z,51.1
2022-10-22T22:37:58.729Z,56.6
2022-10-22T22:40:00.800Z,69.1
2022-10-22T22:42:02.802Z,59
2022-10-22T22:44:07.883Z,60.2
2022-10-22T22:46:09.906Z,56.5
2022-10-22T22:48:11.950Z,58.2
2022-10-22T22:52:16.110Z,43.2
2022-10-22T22:54:18.035Z,47
2022-10-22T22:56:20.073Z,45.9
2022-10-22T22:58:25.133Z,46.1
2022-10-22T23:00:27.203Z,44.2
2022-10-22T23:02:29.425Z,47.6
2022-10-22T23:04:31.235Z,45.8
2022-10-22T23:06:33.252Z,43.9
2022-10-22T23:08:35.351Z,43.8
2022-10-22T23:10:37.308Z,40
2022-10-22T23:12:42.560Z,39.4
2022-10-22T23:14:44.399Z,39.9
2022-10-22T23:16:46.437Z,40.1
2022-10-22T23:18:48.469Z,39.5
2022-10-22T23:20:50.480Z,38.8
2022-10-22T23:22:52.505Z,41.9
2022-10-22T23:24:54.521Z,43.2
2022-10-22T23:26:59.588Z,41.7
2022-10-22T23:29:01.616Z,42.9
2022-10-22T23:31:03.640Z,41.6
2022-10-22T23:32:06.180Z,41
2022-10-22T23:34:08.327Z,39.7
2022-10-22T23:36:10.230Z,41
2022-10-22T23:38:12.230Z,39.3
2022-10-22T23:40:17.332Z,40.8
2022-10-22T23:42:19.349Z,41.6
2022-10-22T23:44:21.377Z,43.8
2022-10-22T23:46:23.389Z,43.8
2022-10-22T23:48:25.408Z,39.9
2022-10-22T23:50:27.430Z,40.9
2022-10-22T23:52:29.462Z,38.6
2022-10-22T23:54:34.545Z,43.9
2022-10-22T23:56:36.573Z,41.6
2022-10-22T23:58:38.573Z,39.3
